sensor_id;sensor_type;location;lat;lon;timestamp;P1;durP1;ratioP1;P2;durP2;ratioP2
55314;SDS011;41619;42.816;23.226;2023-04-06T00:00:47;27.77;;;17.77;;
55314;SDS011;41619;42.816;23.226;2023-04-06T00:03:14;30.00;;;17.95;;
55314;SDS011;41619;42.816;23.226;2023-04-06T00:05:40;31.33;;;18.17;;
55314;SDS011;41619;42.816;23.226;2023-04-06T00:08:06;23.55;;;17.13;;
55314;SDS011;41619;42.816;23.226;2023-04-06T00:10:32;27.85;;;18.55;;
55314;SDS011;41619;42.816;23.226;2023-04-06T00:12:58;26.20;;;18.38;;
55314;SDS011;41619;42.816;23.226;2023-04-06T00:15:25;27.42;;;17.55;;
55314;SDS011;41619;42.816;23.226;2023-04-06T00:17:51;27.75;;;17.92;;
55314;SDS011;41619;42.816;23.226;2023-04-06T00:20:16;28.02;;;18.33;;
55314;SDS011;41619;42.816;23.226;2023-04-06T00:22:43;28.05;;;18.35;;
55314;SDS011;41619;42.816;23.226;2023-04-06T00:25:09;32.33;;;18.02;;
55314;SDS011;41619;42.816;23.226;2023-04-06T00:27:36;27.65;;;18.40;;
55314;SDS011;41619;42.816;23.226;2023-04-06T00:30:03;30.42;;;19.10;;
55314;SDS011;41619;42.816;23.226;2023-04-06T00:32:29;27.95;;;18.17;;
55314;SDS011;41619;42.816;23.226;2023-04-06T00:34:55;31.70;;;19.33;;
55314;SDS011;41619;42.816;23.226;2023-04-06T00:37:21;28.83;;;18.02;;
55314;SDS011;41619;42.816;23.226;2023-04-06T00:39:46;31.35;;;19.10;;
55314;SDS011;41619;42.816;23.226;2023-04-06T00:42:12;30.88;;;19.45;;
55314;SDS011;41619;42.816;23.226;2023-04-06T00:44:39;32.08;;;19.80;;
55314;SDS011;41619;42.816;23.226;2023-04-06T00:49:33;30.08;;;18.77;;
55314;SDS011;41619;42.816;23.226;2023-04-06T00:51:59;28.63;;;19.08;;
55314;SDS011;41619;42.816;23.226;2023-04-06T00:54:24;31.52;;;20.73;;
55314;SDS011;41619;42.816;23.226;2023-04-06T00:56:50;28.52;;;20.35;;
55314;SDS011;41619;42.816;23.226;2023-04-06T00:59:16;35.53;;;21.65;;
55314;SDS011;41619;42.816;23.226;2023-04-06T01:01:42;30.92;;;20.05;;
55314;SDS011;41619;42.816;23.226;2023-04-06T01:04:07;31.88;;;19.98;;
55314;SDS011;41619;42.816;23.226;2023-04-06T01:06:33;34.40;;;19.67;;
55314;SDS011;41619;42.816;23.226;2023-04-06T01:08:58;28.45;;;19.45;;
55314;SDS011;41619;42.816;23.226;2023-04-06T01:11:24;28.65;;;18.98;;
55314;SDS011;41619;42.816;23.226;2023-04-06T01:13:52;39.40;;;22.63;;
55314;SDS011;41619;42.816;23.226;2023-04-06T01:16:18;35.13;;;22.33;;
55314;SDS011;41619;42.816;23.226;2023-04-06T01:18:43;35.63;;;21.92;;
55314;SDS011;41619;42.816;23.226;2023-04-06T01:21:09;33.30;;;21.40;;
55314;SDS011;41619;42.816;23.226;2023-04-06T01:23:41;35.90;;;21.52;;
55314;SDS011;41619;42.816;23.226;2023-04-06T01:26:10;36.55;;;21.92;;
55314;SDS011;41619;42.816;23.226;2023-04-06T01:28:36;42.05;;;24.00;;
55314;SDS011;41619;42.816;23.226;2023-04-06T01:31:02;40.08;;;22.50;;
55314;SDS011;41619;42.816;23.226;2023-04-06T01:33:28;40.80;;;23.60;;
55314;SDS011;41619;42.816;23.226;2023-04-06T01:35:53;33.63;;;21.63;;
55314;SDS011;41619;42.816;23.226;2023-04-06T01:38:19;40.83;;;24.52;;
55314;SDS011;41619;42.816;23.226;2023-04-06T01:40:45;39.60;;;22.52;;
55314;SDS011;41619;42.816;23.226;2023-04-06T01:43:10;34.97;;;22.23;;
55314;SDS011;41619;42.816;23.226;2023-04-06T01:45:36;43.30;;;24.73;;
55314;SDS011;41619;42.816;23.226;2023-04-06T01:48:01;42.53;;;25.30;;
55314;SDS011;41619;42.816;23.226;2023-04-06T01:50:27;42.03;;;23.85;;
55314;SDS011;41619;42.816;23.226;2023-04-06T01:52:52;43.70;;;25.90;;
55314;SDS011;41619;42.816;23.226;2023-04-06T01:55:18;38.53;;;23.30;;
55314;SDS011;41619;42.816;23.226;2023-04-06T01:57:43;42.08;;;24.27;;
55314;SDS011;41619;42.816;23.226;2023-04-06T02:00:09;43.47;;;23.73;;
55314;SDS011;41619;42.816;23.226;2023-04-06T02:02:34;42.08;;;22.88;;
55314;SDS011;41619;42.816;23.226;2023-04-06T02:05:00;49.72;;;24.85;;
55314;SDS011;41619;42.816;23.226;2023-04-06T02:07:25;44.55;;;24.25;;
55314;SDS011;41619;42.816;23.226;2023-04-06T02:09:53;39.88;;;23.00;;
55314;SDS011;41619;42.816;23.226;2023-04-06T02:14:45;41.00;;;23.48;;
55314;SDS011;41619;42.816;23.226;2023-04-06T02:17:10;48.65;;;23.08;;
55314;SDS011;41619;42.816;23.226;2023-04-06T02:19:36;40.35;;;23.42;;
55314;SDS011;41619;42.816;23.226;2023-04-06T02:22:01;43.80;;;22.73;;
55314;SDS011;41619;42.816;23.226;2023-04-06T02:24:27;34.20;;;21.25;;
55314;SDS011;41619;42.816;23.226;2023-04-06T02:26:52;34.70;;;20.55;;
55314;SDS011;41619;42.816;23.226;2023-04-06T02:29:17;37.35;;;20.33;;
55314;SDS011;41619;42.816;23.226;2023-04-06T02:31:43;32.35;;;20.25;;
55314;SDS011;41619;42.816;23.226;2023-04-06T02:34:08;37.95;;;21.10;;
55314;SDS011;41619;42.816;23.226;2023-04-06T02:36:36;34.65;;;21.38;;
55314;SDS011;41619;42.816;23.226;2023-04-06T02:39:02;38.28;;;22.85;;
55314;SDS011;41619;42.816;23.226;2023-04-06T02:41:28;48.65;;;26.15;;
55314;SDS011;41619;42.816;23.226;2023-04-06T02:43:53;36.08;;;21.60;;
55314;SDS011;41619;42.816;23.226;2023-04-06T02:46:19;41.50;;;24.52;;
55314;SDS011;41619;42.816;23.226;2023-04-06T02:48:44;35.53;;;20.20;;
55314;SDS011;41619;42.816;23.226;2023-04-06T02:51:10;30.52;;;20.45;;
55314;SDS011;41619;42.816;23.226;2023-04-06T02:53:36;32.65;;;21.00;;
55314;SDS011;41619;42.816;23.226;2023-04-06T02:56:01;30.65;;;20.38;;
55314;SDS011;41619;42.816;23.226;2023-04-06T02:58:27;34.30;;;21.58;;
55314;SDS011;41619;42.816;23.226;2023-04-06T03:00:52;33.63;;;21.73;;
55314;SDS011;41619;42.816;23.226;2023-04-06T03:03:17;34.25;;;20.77;;
55314;SDS011;41619;42.816;23.226;2023-04-06T03:05:43;31.83;;;20.77;;
55314;SDS011;41619;42.816;23.226;2023-04-06T03:08:08;37.67;;;22.00;;
55314;SDS011;41619;42.816;23.226;2023-04-06T03:10:34;34.15;;;19.83;;
55314;SDS011;41619;42.816;23.226;2023-04-06T03:12:59;42.80;;;24.38;;
55314;SDS011;41619;42.816;23.226;2023-04-06T03:15:25;40.13;;;23.55;;
55314;SDS011;41619;42.816;23.226;2023-04-06T03:17:51;34.78;;;21.73;;
55314;SDS011;41619;42.816;23.226;2023-04-06T03:20:16;35.63;;;21.45;;
55314;SDS011;41619;42.816;23.226;2023-04-06T03:22:42;36.40;;;21.50;;
55314;SDS011;41619;42.816;23.226;2023-04-06T03:25:07;36.58;;;22.00;;
55314;SDS011;41619;42.816;23.226;2023-04-06T03:27:32;36.70;;;22.33;;
55314;SDS011;41619;42.816;23.226;2023-04-06T03:29:58;39.75;;;23.05;;
55314;SDS011;41619;42.816;23.226;2023-04-06T03:32:23;39.03;;;21.08;;
55314;SDS011;41619;42.816;23.226;2023-04-06T03:34:49;35.45;;;22.05;;
55314;SDS011;41619;42.816;23.226;2023-04-06T03:37:14;34.90;;;20.35;;
55314;SDS011;41619;42.816;23.226;2023-04-06T03:39:39;39.20;;;22.08;;
55314;SDS011;41619;42.816;23.226;2023-04-06T03:42:05;39.13;;;22.33;;
55314;SDS011;41619;42.816;23.226;2023-04-06T03:44:31;38.85;;;22.83;;
55314;SDS011;41619;42.816;23.226;2023-04-06T03:46:56;40.97;;;24.17;;
55314;SDS011;41619;42.816;23.226;2023-04-06T03:49:22;34.40;;;21.38;;
55314;SDS011;41619;42.816;23.226;2023-04-06T03:51:47;35.22;;;22.10;;
55314;SDS011;41619;42.816;23.226;2023-04-06T03:54:13;36.95;;;22.48;;
55314;SDS011;41619;42.816;23.226;2023-04-06T03:56:38;36.63;;;21.85;;
55314;SDS011;41619;42.816;23.226;2023-04-06T03:59:03;32.67;;;20.73;;
55314;SDS011;41619;42.816;23.226;2023-04-06T04:01:29;45.10;;;24.30;;
55314;SDS011;41619;42.816;23.226;2023-04-06T04:03:55;41.78;;;24.65;;
55314;SDS011;41619;42.816;23.226;2023-04-06T04:06:20;39.10;;;20.88;;
55314;SDS011;41619;42.816;23.226;2023-04-06T04:08:46;36.42;;;22.55;;
55314;SDS011;41619;42.816;23.226;2023-04-06T04:11:11;37.78;;;22.15;;
55314;SDS011;41619;42.816;23.226;2023-04-06T04:13:37;40.95;;;22.45;;
55314;SDS011;41619;42.816;23.226;2023-04-06T04:16:02;55.40;;;27.00;;
55314;SDS011;41619;42.816;23.226;2023-04-06T04:18:28;116.03;;;45.58;;
55314;SDS011;41619;42.816;23.226;2023-04-06T04:20:53;123.78;;;54.03;;
55314;SDS011;41619;42.816;23.226;2023-04-06T04:23:19;73.28;;;37.58;;
55314;SDS011;41619;42.816;23.226;2023-04-06T04:25:44;54.10;;;27.98;;
55314;SDS011;41619;42.816;23.226;2023-04-06T04:28:10;53.17;;;27.35;;
55314;SDS011;41619;42.816;23.226;2023-04-06T04:30:35;49.80;;;28.17;;
55314;SDS011;41619;42.816;23.226;2023-04-06T04:33:01;58.63;;;30.90;;
55314;SDS011;41619;42.816;23.226;2023-04-06T04:35:26;43.25;;;24.17;;
55314;SDS011;41619;42.816;23.226;2023-04-06T04:37:51;43.28;;;22.58;;
55314;SDS011;41619;42.816;23.226;2023-04-06T04:40:17;36.42;;;19.55;;
55314;SDS011;41619;42.816;23.226;2023-04-06T04:42:42;50.78;;;27.00;;
55314;SDS011;41619;42.816;23.226;2023-04-06T04:45:08;36.58;;;21.25;;
55314;SDS011;41619;42.816;23.226;2023-04-06T04:47:33;49.85;;;27.35;;
55314;SDS011;41619;42.816;23.226;2023-04-06T04:49:59;36.35;;;21.10;;
55314;SDS011;41619;42.816;23.226;2023-04-06T04:52:24;37.40;;;20.88;;
55314;SDS011;41619;42.816;23.226;2023-04-06T04:54:50;51.63;;;28.42;;
55314;SDS011;41619;42.816;23.226;2023-04-06T04:57:15;46.65;;;26.25;;
55314;SDS011;41619;42.816;23.226;2023-04-06T04:59:42;44.72;;;22.20;;
55314;SDS011;41619;42.816;23.226;2023-04-06T05:02:08;50.35;;;26.30;;
55314;SDS011;41619;42.816;23.226;2023-04-06T05:04:33;66.65;;;32.17;;
55314;SDS011;41619;42.816;23.226;2023-04-06T05:07:05;52.70;;;29.42;;
55314;SDS011;41619;42.816;23.226;2023-04-06T05:09:31;47.95;;;26.70;;
55314;SDS011;41619;42.816;23.226;2023-04-06T05:11:58;46.38;;;26.60;;
55314;SDS011;41619;42.816;23.226;2023-04-06T05:14:24;37.25;;;22.10;;
55314;SDS011;41619;42.816;23.226;2023-04-06T05:16:49;42.05;;;21.60;;
55314;SDS011;41619;42.816;23.226;2023-04-06T05:19:15;49.20;;;23.75;;
55314;SDS011;41619;42.816;23.226;2023-04-06T05:21:41;43.10;;;23.55;;
55314;SDS011;41619;42.816;23.226;2023-04-06T05:24:06;37.22;;;21.17;;
55314;SDS011;41619;42.816;23.226;2023-04-06T05:26:32;34.88;;;19.55;;
55314;SDS011;41619;42.816;23.226;2023-04-06T05:28:57;37.38;;;21.80;;
55314;SDS011;41619;42.816;23.226;2023-04-06T05:31:23;40.72;;;21.08;;
55314;SDS011;41619;42.816;23.226;2023-04-06T05:33:48;35.10;;;20.35;;
55314;SDS011;41619;42.816;23.226;2023-04-06T05:36:14;36.28;;;22.02;;
55314;SDS011;41619;42.816;23.226;2023-04-06T05:38:39;35.97;;;19.75;;
55314;SDS011;41619;42.816;23.226;2023-04-06T05:41:05;39.53;;;21.05;;
55314;SDS011;41619;42.816;23.226;2023-04-06T05:43:31;37.30;;;22.60;;
55314;SDS011;41619;42.816;23.226;2023-04-06T05:45:56;53.00;;;25.85;;
55314;SDS011;41619;42.816;23.226;2023-04-06T05:48:22;46.08;;;25.85;;
55314;SDS011;41619;42.816;23.226;2023-04-06T05:50:50;37.60;;;22.00;;
55314;SDS011;41619;42.816;23.226;2023-04-06T05:53:16;49.25;;;27.33;;
55314;SDS011;41619;42.816;23.226;2023-04-06T05:55:41;46.45;;;26.63;;
55314;SDS011;41619;42.816;23.226;2023-04-06T05:58:07;47.67;;;23.73;;
55314;SDS011;41619;42.816;23.226;2023-04-06T06:00:32;41.67;;;24.35;;
55314;SDS011;41619;42.816;23.226;2023-04-06T06:02:58;58.72;;;29.55;;
55314;SDS011;41619;42.816;23.226;2023-04-06T06:05:24;49.63;;;24.15;;
55314;SDS011;41619;42.816;23.226;2023-04-06T06:07:49;43.83;;;23.67;;
55314;SDS011;41619;42.816;23.226;2023-04-06T06:10:15;46.13;;;26.70;;
55314;SDS011;41619;42.816;23.226;2023-04-06T06:12:40;50.58;;;27.17;;
55314;SDS011;41619;42.816;23.226;2023-04-06T06:15:06;39.85;;;24.05;;
55314;SDS011;41619;42.816;23.226;2023-04-06T06:17:32;42.28;;;25.60;;
55314;SDS011;41619;42.816;23.226;2023-04-06T06:19:57;41.90;;;24.60;;
55314;SDS011;41619;42.816;23.226;2023-04-06T06:22:23;42.72;;;23.70;;
55314;SDS011;41619;42.816;23.226;2023-04-06T06:24:48;47.55;;;24.45;;
55314;SDS011;41619;42.816;23.226;2023-04-06T06:27:15;44.45;;;25.52;;
55314;SDS011;41619;42.816;23.226;2023-04-06T06:29:40;41.83;;;25.00;;
55314;SDS011;41619;42.816;23.226;2023-04-06T06:32:06;49.28;;;25.75;;
55314;SDS011;41619;42.816;23.226;2023-04-06T06:34:33;41.28;;;23.77;;
55314;SDS011;41619;42.816;23.226;2023-04-06T06:36:58;41.03;;;23.40;;
55314;SDS011;41619;42.816;23.226;2023-04-06T06:39:23;39.05;;;22.50;;
55314;SDS011;41619;42.816;23.226;2023-04-06T06:41:50;46.35;;;24.80;;
55314;SDS011;41619;42.816;23.226;2023-04-06T06:44:15;37.97;;;22.70;;
55314;SDS011;41619;42.816;23.226;2023-04-06T06:46:41;61.63;;;29.42;;
55314;SDS011;41619;42.816;23.226;2023-04-06T06:49:07;55.78;;;27.38;;
55314;SDS011;41619;42.816;23.226;2023-04-06T06:51:32;42.28;;;24.88;;
55314;SDS011;41619;42.816;23.226;2023-04-06T06:53:57;46.58;;;25.88;;
55314;SDS011;41619;42.816;23.226;2023-04-06T06:56:23;47.10;;;26.38;;
55314;SDS011;41619;42.816;23.226;2023-04-06T06:58:48;42.97;;;24.98;;
55314;SDS011;41619;42.816;23.226;2023-04-06T07:01:14;47.58;;;25.73;;
55314;SDS011;41619;42.816;23.226;2023-04-06T07:03:39;51.88;;;27.67;;
55314;SDS011;41619;42.816;23.226;2023-04-06T07:06:04;44.47;;;24.55;;
55314;SDS011;41619;42.816;23.226;2023-04-06T07:08:30;47.38;;;23.60;;
55314;SDS011;41619;42.816;23.226;2023-04-06T07:10:55;34.22;;;21.45;;
55314;SDS011;41619;42.816;23.226;2023-04-06T07:13:21;40.75;;;22.52;;
55314;SDS011;41619;42.816;23.226;2023-04-06T07:15:51;34.53;;;21.92;;
55314;SDS011;41619;42.816;23.226;2023-04-06T07:18:17;37.97;;;21.42;;
55314;SDS011;41619;42.816;23.226;2023-04-06T07:20:43;36.88;;;20.85;;
55314;SDS011;41619;42.816;23.226;2023-04-06T07:23:09;34.40;;;19.98;;
55314;SDS011;41619;42.816;23.226;2023-04-06T07:25:34;36.05;;;20.73;;
55314;SDS011;41619;42.816;23.226;2023-04-06T07:28:00;34.97;;;19.67;;
55314;SDS011;41619;42.816;23.226;2023-04-06T07:30:26;35.13;;;19.80;;
55314;SDS011;41619;42.816;23.226;2023-04-06T07:32:53;36.53;;;22.38;;
55314;SDS011;41619;42.816;23.226;2023-04-06T07:35:24;34.83;;;20.83;;
55314;SDS011;41619;42.816;23.226;2023-04-06T07:37:51;39.58;;;20.52;;
55314;SDS011;41619;42.816;23.226;2023-04-06T07:40:16;41.40;;;20.98;;
55314;SDS011;41619;42.816;23.226;2023-04-06T07:42:42;40.30;;;20.95;;
55314;SDS011;41619;42.816;23.226;2023-04-06T07:45:07;37.95;;;21.40;;
55314;SDS011;41619;42.816;23.226;2023-04-06T07:47:33;36.53;;;20.98;;
55314;SDS011;41619;42.816;23.226;2023-04-06T07:49:58;34.53;;;18.90;;
55314;SDS011;41619;42.816;23.226;2023-04-06T07:52:24;28.23;;;17.65;;
55314;SDS011;41619;42.816;23.226;2023-04-06T07:54:49;31.75;;;17.60;;
55314;SDS011;41619;42.816;23.226;2023-04-06T07:57:15;27.35;;;17.98;;
55314;SDS011;41619;42.816;23.226;2023-04-06T07:59:40;35.13;;;19.02;;
55314;SDS011;41619;42.816;23.226;2023-04-06T08:02:06;41.25;;;21.23;;
55314;SDS011;41619;42.816;23.226;2023-04-06T08:04:31;26.25;;;16.13;;
55314;SDS011;41619;42.816;23.226;2023-04-06T08:06:57;27.15;;;16.17;;
55314;SDS011;41619;42.816;23.226;2023-04-06T08:09:22;26.52;;;15.93;;
55314;SDS011;41619;42.816;23.226;2023-04-06T08:11:48;33.00;;;18.00;;
55314;SDS011;41619;42.816;23.226;2023-04-06T08:14:14;34.40;;;18.25;;
55314;SDS011;41619;42.816;23.226;2023-04-06T08:16:40;27.77;;;17.55;;
55314;SDS011;41619;42.816;23.226;2023-04-06T08:19:06;27.45;;;16.85;;
55314;SDS011;41619;42.816;23.226;2023-04-06T08:21:34;26.50;;;16.63;;
55314;SDS011;41619;42.816;23.226;2023-04-06T08:24:02;21.17;;;15.15;;
55314;SDS011;41619;42.816;23.226;2023-04-06T08:26:28;30.75;;;17.33;;
55314;SDS011;41619;42.816;23.226;2023-04-06T08:28:54;41.50;;;20.92;;
55314;SDS011;41619;42.816;23.226;2023-04-06T08:31:19;35.10;;;18.40;;
55314;SDS011;41619;42.816;23.226;2023-04-06T08:33:45;35.55;;;17.15;;
55314;SDS011;41619;42.816;23.226;2023-04-06T08:36:13;27.00;;;15.70;;
55314;SDS011;41619;42.816;23.226;2023-04-06T08:38:40;31.08;;;18.83;;
55314;SDS011;41619;42.816;23.226;2023-04-06T08:41:09;28.45;;;16.80;;
55314;SDS011;41619;42.816;23.226;2023-04-06T08:43:58;30.85;;;18.75;;
55314;SDS011;41619;42.816;23.226;2023-04-06T08:46:23;25.58;;;15.75;;
55314;SDS011;41619;42.816;23.226;2023-04-06T08:48:54;28.63;;;17.50;;
55314;SDS011;41619;42.816;23.226;2023-04-06T08:51:25;28.63;;;16.88;;
55314;SDS011;41619;42.816;23.226;2023-04-06T08:53:54;33.33;;;18.55;;
55314;SDS011;41619;42.816;23.226;2023-04-06T08:56:22;34.22;;;17.95;;
55314;SDS011;41619;42.816;23.226;2023-04-06T08:58:48;34.03;;;19.75;;
55314;SDS011;41619;42.816;23.226;2023-04-06T09:01:16;30.42;;;18.40;;
55314;SDS011;41619;42.816;23.226;2023-04-06T09:03:42;28.38;;;17.55;;
55314;SDS011;41619;42.816;23.226;2023-04-06T09:06:09;27.50;;;16.80;;
55314;SDS011;41619;42.816;23.226;2023-04-06T09:08:38;26.75;;;16.60;;
55314;SDS011;41619;42.816;23.226;2023-04-06T09:11:05;30.45;;;17.90;;
55314;SDS011;41619;42.816;23.226;2023-04-06T09:13:31;24.38;;;17.23;;
55314;SDS011;41619;42.816;23.226;2023-04-06T09:16:00;29.42;;;15.35;;
55314;SDS011;41619;42.816;23.226;2023-04-06T09:18:33;25.83;;;15.45;;
55314;SDS011;41619;42.816;23.226;2023-04-06T09:21:03;24.08;;;15.13;;
55314;SDS011;41619;42.816;23.226;2023-04-06T09:23:30;22.20;;;15.55;;
55314;SDS011;41619;42.816;23.226;2023-04-06T09:26:15;23.30;;;14.90;;
55314;SDS011;41619;42.816;23.226;2023-04-06T09:28:51;23.77;;;15.90;;
55314;SDS011;41619;42.816;23.226;2023-04-06T09:31:27;29.13;;;16.90;;
55314;SDS011;41619;42.816;23.226;2023-04-06T09:33:54;31.23;;;18.15;;
55314;SDS011;41619;42.816;23.226;2023-04-06T09:36:34;29.80;;;17.05;;
55314;SDS011;41619;42.816;23.226;2023-04-06T09:39:03;20.30;;;14.70;;
55314;SDS011;41619;42.816;23.226;2023-04-06T09:41:30;18.27;;;12.88;;
55314;SDS011;41619;42.816;23.226;2023-04-06T09:44:10;21.45;;;13.50;;
55314;SDS011;41619;42.816;23.226;2023-04-06T09:46:40;21.88;;;14.32;;
55314;SDS011;41619;42.816;23.226;2023-04-06T09:49:08;23.38;;;14.10;;
55314;SDS011;41619;42.816;23.226;2023-04-06T09:54:23;22.65;;;15.82;;
55314;SDS011;41619;42.816;23.226;2023-04-06T09:56:56;28.33;;;18.38;;
55314;SDS011;41619;42.816;23.226;2023-04-06T10:02:08;16.20;;;12.25;;
55314;SDS011;41619;42.816;23.226;2023-04-06T10:04:43;19.98;;;13.18;;
55314;SDS011;41619;42.816;23.226;2023-04-06T10:07:20;29.55;;;12.73;;
55314;SDS011;41619;42.816;23.226;2023-04-06T10:09:46;15.40;;;11.90;;
55314;SDS011;41619;42.816;23.226;2023-04-06T10:12:14;23.33;;;13.43;;
55314;SDS011;41619;42.816;23.226;2023-04-06T10:14:40;24.17;;;15.25;;
55314;SDS011;41619;42.816;23.226;2023-04-06T10:17:06;14.73;;;10.48;;
55314;SDS011;41619;42.816;23.226;2023-04-06T10:19:34;19.35;;;13.05;;
55314;SDS011;41619;42.816;23.226;2023-04-06T10:22:02;17.65;;;11.98;;
55314;SDS011;41619;42.816;23.226;2023-04-06T10:24:30;19.33;;;12.50;;
55314;SDS011;41619;42.816;23.226;2023-04-06T10:27:00;19.58;;;13.10;;
55314;SDS011;41619;42.816;23.226;2023-04-06T10:29:27;22.15;;;13.25;;
55314;SDS011;41619;42.816;23.226;2023-04-06T10:31:52;20.38;;;13.63;;
55314;SDS011;41619;42.816;23.226;2023-04-06T10:34:20;23.00;;;12.25;;
55314;SDS011;41619;42.816;23.226;2023-04-06T10:36:46;21.70;;;13.73;;
55314;SDS011;41619;42.816;23.226;2023-04-06T10:39:11;25.73;;;15.15;;
55314;SDS011;41619;42.816;23.226;2023-04-06T10:41:44;17.40;;;12.10;;
55314;SDS011;41619;42.816;23.226;2023-04-06T10:44:21;22.25;;;15.02;;
55314;SDS011;41619;42.816;23.226;2023-04-06T10:46:57;17.98;;;13.18;;
55314;SDS011;41619;42.816;23.226;2023-04-06T10:49:27;18.20;;;12.07;;
55314;SDS011;41619;42.816;23.226;2023-04-06T10:51:53;19.65;;;12.75;;
55314;SDS011;41619;42.816;23.226;2023-04-06T10:54:21;15.35;;;11.75;;
55314;SDS011;41619;42.816;23.226;2023-04-06T10:59:14;17.45;;;10.65;;
55314;SDS011;41619;42.816;23.226;2023-04-06T11:01:44;18.33;;;12.85;;
55314;SDS011;41619;42.816;23.226;2023-04-06T11:04:10;15.82;;;11.07;;
55314;SDS011;41619;42.816;23.226;2023-04-06T11:06:38;23.50;;;9.90;;
55314;SDS011;41619;42.816;23.226;2023-04-06T11:09:04;28.17;;;16.98;;
55314;SDS011;41619;42.816;23.226;2023-04-06T11:11:29;21.27;;;13.85;;
55314;SDS011;41619;42.816;23.226;2023-04-06T11:13:56;18.38;;;12.15;;
55314;SDS011;41619;42.816;23.226;2023-04-06T11:16:23;28.13;;;15.32;;
55314;SDS011;41619;42.816;23.226;2023-04-06T11:18:51;19.52;;;12.43;;
55314;SDS011;41619;42.816;23.226;2023-04-06T11:24:18;20.42;;;12.05;;
55314;SDS011;41619;42.816;23.226;2023-04-06T11:26:50;19.73;;;12.70;;
55314;SDS011;41619;42.816;23.226;2023-04-06T11:29:17;22.77;;;14.52;;
55314;SDS011;41619;42.816;23.226;2023-04-06T11:34:17;18.08;;;11.68;;
55314;SDS011;41619;42.816;23.226;2023-04-06T11:36:44;22.73;;;12.73;;
55314;SDS011;41619;42.816;23.226;2023-04-06T11:39:21;28.42;;;13.77;;
55314;SDS011;41619;42.816;23.226;2023-04-06T11:41:52;20.38;;;11.90;;
55314;SDS011;41619;42.816;23.226;2023-04-06T11:46:59;20.15;;;11.00;;
55314;SDS011;41619;42.816;23.226;2023-04-06T11:49:27;22.13;;;12.85;;
55314;SDS011;41619;42.816;23.226;2023-04-06T11:51:53;22.23;;;12.52;;
55314;SDS011;41619;42.816;23.226;2023-04-06T11:54:40;16.27;;;10.65;;
55314;SDS011;41619;42.816;23.226;2023-04-06T11:57:07;17.58;;;11.40;;
55314;SDS011;41619;42.816;23.226;2023-04-06T11:59:33;13.50;;;9.93;;
55314;SDS011;41619;42.816;23.226;2023-04-06T12:02:03;21.55;;;9.85;;
55314;SDS011;41619;42.816;23.226;2023-04-06T12:04:29;15.93;;;10.07;;
55314;SDS011;41619;42.816;23.226;2023-04-06T12:06:55;17.20;;;10.10;;
55314;SDS011;41619;42.816;23.226;2023-04-06T12:09:21;21.33;;;12.05;;
55314;SDS011;41619;42.816;23.226;2023-04-06T12:11:46;17.88;;;11.80;;
55314;SDS011;41619;42.816;23.226;2023-04-06T12:14:12;20.38;;;11.98;;
55314;SDS011;41619;42.816;23.226;2023-04-06T12:16:38;23.20;;;12.35;;
55314;SDS011;41619;42.816;23.226;2023-04-06T12:19:03;21.48;;;12.20;;
55314;SDS011;41619;42.816;23.226;2023-04-06T12:21:33;28.75;;;16.38;;
55314;SDS011;41619;42.816;23.226;2023-04-06T12:24:01;22.08;;;12.77;;
55314;SDS011;41619;42.816;23.226;2023-04-06T12:26:26;27.15;;;15.93;;
55314;SDS011;41619;42.816;23.226;2023-04-06T12:28:52;19.65;;;11.07;;
55314;SDS011;41619;42.816;23.226;2023-04-06T12:31:19;24.60;;;14.52;;
55314;SDS011;41619;42.816;23.226;2023-04-06T12:33:46;34.97;;;19.30;;
55314;SDS011;41619;42.816;23.226;2023-04-06T12:36:17;13.27;;;9.93;;
55314;SDS011;41619;42.816;23.226;2023-04-06T12:38:44;23.10;;;14.55;;
55314;SDS011;41619;42.816;23.226;2023-04-06T12:41:11;48.13;;;23.33;;
55314;SDS011;41619;42.816;23.226;2023-04-06T12:43:37;23.05;;;12.45;;
55314;SDS011;41619;42.816;23.226;2023-04-06T12:46:03;42.75;;;21.38;;
55314;SDS011;41619;42.816;23.226;2023-04-06T12:48:29;34.80;;;18.52;;
55314;SDS011;41619;42.816;23.226;2023-04-06T12:50:57;19.17;;;11.25;;
55314;SDS011;41619;42.816;23.226;2023-04-06T12:53:23;23.02;;;13.98;;
55314;SDS011;41619;42.816;23.226;2023-04-06T12:55:48;16.10;;;11.35;;
55314;SDS011;41619;42.816;23.226;2023-04-06T12:58:14;21.40;;;12.55;;
55314;SDS011;41619;42.816;23.226;2023-04-06T13:00:40;24.92;;;14.27;;
55314;SDS011;41619;42.816;23.226;2023-04-06T13:03:05;29.15;;;14.55;;
55314;SDS011;41619;42.816;23.226;2023-04-06T13:05:31;18.60;;;11.18;;
55314;SDS011;41619;42.816;23.226;2023-04-06T13:07:56;22.15;;;11.35;;
55314;SDS011;41619;42.816;23.226;2023-04-06T13:10:22;33.30;;;14.52;;
55314;SDS011;41619;42.816;23.226;2023-04-06T13:12:47;15.48;;;10.93;;
55314;SDS011;41619;42.816;23.226;2023-04-06T13:15:13;34.92;;;15.35;;
55314;SDS011;41619;42.816;23.226;2023-04-06T13:17:38;24.50;;;11.63;;
55314;SDS011;41619;42.816;23.226;2023-04-06T13:20:04;18.35;;;11.07;;
55314;SDS011;41619;42.816;23.226;2023-04-06T13:22:31;18.90;;;10.55;;
55314;SDS011;41619;42.816;23.226;2023-04-06T13:24:56;22.45;;;13.93;;
55314;SDS011;41619;42.816;23.226;2023-04-06T13:27:22;29.80;;;16.25;;
55314;SDS011;41619;42.816;23.226;2023-04-06T13:29:47;21.33;;;13.48;;
55314;SDS011;41619;42.816;23.226;2023-04-06T13:32:12;17.23;;;12.43;;
55314;SDS011;41619;42.816;23.226;2023-04-06T13:34:38;20.40;;;10.10;;
55314;SDS011;41619;42.816;23.226;2023-04-06T13:37:03;18.13;;;11.48;;
55314;SDS011;41619;42.816;23.226;2023-04-06T13:39:29;14.02;;;10.38;;
55314;SDS011;41619;42.816;23.226;2023-04-06T13:41:55;15.23;;;10.63;;
55314;SDS011;41619;42.816;23.226;2023-04-06T13:44:23;18.35;;;11.80;;
55314;SDS011;41619;42.816;23.226;2023-04-06T13:46:48;20.88;;;11.93;;
55314;SDS011;41619;42.816;23.226;2023-04-06T13:49:14;20.67;;;11.65;;
55314;SDS011;41619;42.816;23.226;2023-04-06T13:51:40;20.42;;;12.20;;
55314;SDS011;41619;42.816;23.226;2023-04-06T13:54:06;20.67;;;12.02;;
55314;SDS011;41619;42.816;23.226;2023-04-06T13:56:31;32.97;;;16.67;;
55314;SDS011;41619;42.816;23.226;2023-04-06T13:58:57;20.85;;;12.23;;
55314;SDS011;41619;42.816;23.226;2023-04-06T14:01:22;19.83;;;11.93;;
55314;SDS011;41619;42.816;23.226;2023-04-06T14:03:48;25.48;;;12.98;;
55314;SDS011;41619;42.816;23.226;2023-04-06T14:06:14;17.17;;;11.80;;
55314;SDS011;41619;42.816;23.226;2023-04-06T14:08:39;21.83;;;13.35;;
55314;SDS011;41619;42.816;23.226;2023-04-06T14:11:06;23.38;;;12.55;;
55314;SDS011;41619;42.816;23.226;2023-04-06T14:13:33;19.50;;;12.48;;
55314;SDS011;41619;42.816;23.226;2023-04-06T14:15:59;17.73;;;12.45;;
55314;SDS011;41619;42.816;23.226;2023-04-06T14:18:24;18.92;;;12.40;;
55314;SDS011;41619;42.816;23.226;2023-04-06T14:20:56;19.27;;;12.82;;
55314;SDS011;41619;42.816;23.226;2023-04-06T14:23:22;20.65;;;12.82;;
55314;SDS011;41619;42.816;23.226;2023-04-06T14:25:50;23.40;;;14.90;;